sensor_id;sensor_type;location;lat;lon;timestamp;P1;durP1;ratioP1;P2;durP2;ratioP2
57315;SDS011;43156;50.942;18.144;2023-05-18T00:16:32;7.70;;;3.20;;
57315;SDS011;43156;50.942;18.144;2023-05-18T00:26:30;7.70;;;3.60;;
57315;SDS011;43156;50.942;18.144;2023-05-18T00:36:20;8.00;;;3.30;;
57315;SDS011;43156;50.942;18.144;2023-05-18T00:41:18;11.90;;;4.00;;
57315;SDS011;43156;50.942;18.144;2023-05-18T00:51:12;15.80;;;3.60;;
57315;SDS011;43156;50.942;18.144;2023-05-18T01:01:00;7.90;;;4.60;;
57315;SDS011;43156;50.942;18.144;2023-05-18T01:11:04;11.20;;;5.80;;
57315;SDS011;43156;50.942;18.144;2023-05-18T01:31:49;8.50;;;3.20;;
57315;SDS011;43156;50.942;18.144;2023-05-18T01:41:55;4.40;;;1.70;;
57315;SDS011;43156;50.942;18.144;2023-05-18T01:52:10;11.70;;;3.10;;
57315;SDS011;43156;50.942;18.144;2023-05-18T02:02:10;7.00;;;2.60;;
57315;SDS011;43156;50.942;18.144;2023-05-18T02:12:04;13.30;;;2.70;;
57315;SDS011;43156;50.942;18.144;2023-05-18T02:21:57;14.50;;;2.10;;
57315;SDS011;43156;50.942;18.144;2023-05-18T02:31:45;7.50;;;2.10;;
57315;SDS011;43156;50.942;18.144;2023-05-18T02:41:37;5.40;;;2.80;;
57315;SDS011;43156;50.942;18.144;2023-05-18T02:51:43;15.60;;;3.50;;
57315;SDS011;43156;50.942;18.144;2023-05-18T03:01:34;2.80;;;1.40;;
57315;SDS011;43156;50.942;18.144;2023-05-18T03:11:23;11.30;;;2.80;;
57315;SDS011;43156;50.942;18.144;2023-05-18T03:18:45;9.40;;;2.80;;
57315;SDS011;43156;50.942;18.144;2023-05-18T03:28:37;6.10;;;2.30;;
57315;SDS011;43156;50.942;18.144;2023-05-18T03:38:45;3.80;;;1.80;;
57315;SDS011;43156;50.942;18.144;2023-05-18T03:48:36;5.20;;;2.60;;
57315;SDS011;43156;50.942;18.144;2023-05-18T03:58:28;3.40;;;1.80;;
57315;SDS011;43156;50.942;18.144;2023-05-18T04:08:16;7.10;;;2.80;;
57315;SDS011;43156;50.942;18.144;2023-05-18T04:18:16;9.10;;;2.40;;
57315;SDS011;43156;50.942;18.144;2023-05-18T04:28:10;7.90;;;2.30;;
57315;SDS011;43156;50.942;18.144;2023-05-18T04:38:08;12.70;;;2.70;;
57315;SDS011;43156;50.942;18.144;2023-05-18T04:48:06;3.90;;;1.80;;
57315;SDS011;43156;50.942;18.144;2023-05-18T04:58:07;5.30;;;2.90;;
57315;SDS011;43156;50.942;18.144;2023-05-18T05:08:01;21.70;;;4.10;;
57315;SDS011;43156;50.942;18.144;2023-05-18T05:17:58;6.80;;;3.50;;
57315;SDS011;43156;50.942;18.144;2023-05-18T05:27:53;11.40;;;3.10;;
57315;SDS011;43156;50.942;18.144;2023-05-18T05:37:50;4.50;;;2.90;;
57315;SDS011;43156;50.942;18.144;2023-05-18T05:47:38;13.10;;;3.50;;
57315;SDS011;43156;50.942;18.144;2023-05-18T06:46:52;6.70;;;2.70;;
57315;SDS011;43156;50.942;18.144;2023-05-18T06:56:38;3.80;;;1.80;;
57315;SDS011;43156;50.942;18.144;2023-05-18T07:06:26;17.90;;;2.60;;
57315;SDS011;43156;50.942;18.144;2023-05-18T07:16:10;0.80;;;0.60;;
57315;SDS011;43156;50.942;18.144;2023-05-18T07:25:59;2.20;;;2.00;;
57315;SDS011;43156;50.942;18.144;2023-05-18T07:35:43;3.10;;;2.20;;
57315;SDS011;43156;50.942;18.144;2023-05-18T07:45:38;7.70;;;1.60;;
57315;SDS011;43156;50.942;18.144;2023-05-18T07:55:26;7.40;;;2.10;;
57315;SDS011;43156;50.942;18.144;2023-05-18T08:05:10;4.10;;;1.60;;
57315;SDS011;43156;50.942;18.144;2023-05-18T08:15:01;7.20;;;3.00;;
57315;SDS011;43156;50.942;18.144;2023-05-18T08:24:47;5.50;;;1.20;;
57315;SDS011;43156;50.942;18.144;2023-05-18T08:34:32;3.60;;;1.90;;
57315;SDS011;43156;50.942;18.144;2023-05-18T08:44:33;3.50;;;1.50;;
57315;SDS011;43156;50.942;18.144;2023-05-18T08:54:35;1.80;;;1.00;;
57315;SDS011;43156;50.942;18.144;2023-05-18T09:04:23;8.70;;;1.00;;
57315;SDS011;43156;50.942;18.144;2023-05-18T09:14:13;1.60;;;0.80;;
57315;SDS011;43156;50.942;18.144;2023-05-18T09:24:03;2.40;;;1.10;;
57315;SDS011;43156;50.942;18.144;2023-05-18T09:33:52;3.50;;;0.90;;
57315;SDS011;43156;50.942;18.144;2023-05-18T09:43:46;2.80;;;0.90;;
57315;SDS011;43156;50.942;18.144;2023-05-18T09:54:02;4.20;;;1.60;;
57315;SDS011;43156;50.942;18.144;2023-05-18T10:03:52;1.70;;;0.80;;
57315;SDS011;43156;50.942;18.144;2023-05-18T10:13:53;2.90;;;0.70;;
57315;SDS011;43156;50.942;18.144;2023-05-18T10:23:39;0.80;;;0.70;;
57315;SDS011;43156;50.942;18.144;2023-05-18T10:37:48;3.10;;;1.30;;
57315;SDS011;43156;50.942;18.144;2023-05-18T10:47:40;4.50;;;1.30;;
57315;SDS011;43156;50.942;18.144;2023-05-18T10:57:31;0.20;;;0.20;;
57315;SDS011;43156;50.942;18.144;2023-05-18T11:07:34;0.20;;;0.20;;
57315;SDS011;43156;50.942;18.144;2023-05-18T12:17:15;3.60;;;0.90;;
57315;SDS011;43156;50.942;18.144;2023-05-18T12:27:10;2.70;;;1.10;;
57315;SDS011;43156;50.942;18.144;2023-05-18T12:37:06;4.70;;;1.10;;
57315;SDS011;43156;50.942;18.144;2023-05-18T12:47:11;0.90;;;0.60;;
57315;SDS011;43156;50.942;18.144;2023-05-18T12:57:27;1.80;;;0.90;;
57315;SDS011;43156;50.942;18.144;2023-05-18T13:07:29;0.80;;;0.50;;
57315;SDS011;43156;50.942;18.144;2023-05-18T13:17:55;4.90;;;0.80;;
57315;SDS011;43156;50.942;18.144;2023-05-18T13:27:57;4.40;;;1.00;;
57315;SDS011;43156;50.942;18.144;2023-05-18T13:37:50;1.50;;;1.00;;
57315;SDS011;43156;50.942;18.144;2023-05-18T13:47:41;1.90;;;0.70;;
57315;SDS011;43156;50.942;18.144;2023-05-18T13:57:45;1.60;;;0.70;;
57315;SDS011;43156;50.942;18.144;2023-05-18T14:07:47;1.50;;;0.40;;
57315;SDS011;43156;50.942;18.144;2023-05-18T14:17:48;3.60;;;1.00;;
57315;SDS011;43156;50.942;18.144;2023-05-18T14:27:35;1.70;;;0.80;;
57315;SDS011;43156;50.942;18.144;2023-05-18T14:37:29;7.40;;;0.90;;
57315;SDS011;43156;50.942;18.144;2023-05-18T14:47:20;1.00;;;0.80;;
57315;SDS011;43156;50.942;18.144;2023-05-18T14:57:07;2.60;;;1.00;;
57315;SDS011;43156;50.942;18.144;2023-05-18T15:07:04;1.10;;;0.60;;
57315;SDS011;43156;50.942;18.144;2023-05-18T15:17:01;0.50;;;0.50;;
57315;SDS011;43156;50.942;18.144;2023-05-18T15:27:08;3.70;;;0.90;;
57315;SDS011;43156;50.942;18.144;2023-05-18T15:37:35;7.30;;;0.90;;
57315;SDS011;43156;50.942;18.144;2023-05-18T15:47:22;2.20;;;1.30;;
57315;SDS011;43156;50.942;18.144;2023-05-18T15:57:28;2.30;;;1.70;;
57315;SDS011;43156;50.942;18.144;2023-05-18T16:07:27;1.10;;;1.00;;
57315;SDS011;43156;50.942;18.144;2023-05-18T16:17:25;4.60;;;1.90;;
57315;SDS011;43156;50.942;18.144;2023-05-18T16:27:23;4.50;;;2.70;;
57315;SDS011;43156;50.942;18.144;2023-05-18T16:37:16;3.90;;;1.50;;
57315;SDS011;43156;50.942;18.144;2023-05-18T16:47:13;17.30;;;7.40;;
57315;SDS011;43156;50.942;18.144;2023-05-18T16:57:13;5.30;;;4.30;;
57315;SDS011;43156;50.942;18.144;2023-05-18T17:07:19;3.50;;;3.10;;
57315;SDS011;43156;50.942;18.144;2023-05-18T17:17:23;6.90;;;6.20;;
57315;SDS011;43156;50.942;18.144;2023-05-18T18:15:30;10.00;;;3.10;;
57315;SDS011;43156;50.942;18.144;2023-05-18T18:25:19;8.60;;;2.50;;
57315;SDS011;43156;50.942;18.144;2023-05-18T18:42:31;2.80;;;2.50;;
57315;SDS011;43156;50.942;18.144;2023-05-18T18:52:21;11.20;;;2.70;;
57315;SDS011;43156;50.942;18.144;2023-05-18T19:02:10;3.60;;;2.70;;
57315;SDS011;43156;50.942;18.144;2023-05-18T19:12:00;6.20;;;4.20;;
57315;SDS011;43156;50.942;18.144;2023-05-18T19:21:48;5.20;;;3.10;;
57315;SDS011;43156;50.942;18.144;2023-05-18T19:31:40;13.50;;;6.10;;
57315;SDS011;43156;50.942;18.144;2023-05-18T19:41:30;12.00;;;4.30;;
57315;SDS011;43156;50.942;18.144;2023-05-18T19:51:17;8.30;;;5.50;;
57315;SDS011;43156;50.942;18.144;2023-05-18T20:01:09;8.70;;;1.90;;
57315;SDS011;43156;50.942;18.144;2023-05-18T20:10:57;3.90;;;3.50;;
57315;SDS011;43156;50.942;18.144;2023-05-18T20:21:02;4.10;;;2.90;;
57315;SDS011;43156;50.942;18.144;2023-05-18T20:30:51;3.80;;;2.80;;
57315;SDS011;43156;50.942;18.144;2023-05-18T20:40:41;14.00;;;5.30;;
57315;SDS011;43156;50.942;18.144;2023-05-18T20:50:36;9.90;;;5.20;;
57315;SDS011;43156;50.942;18.144;2023-05-18T21:00:27;8.70;;;5.20;;
57315;SDS011;43156;50.942;18.144;2023-05-18T21:10:21;5.80;;;4.80;;
57315;SDS011;43156;50.942;18.144;2023-05-18T21:20:19;10.10;;;3.00;;
57315;SDS011;43156;50.942;18.144;2023-05-18T21:30:08;4.20;;;3.10;;
57315;SDS011;43156;50.942;18.144;2023-05-18T21:40:01;10.90;;;5.30;;
57315;SDS011;43156;50.942;18.144;2023-05-18T21:49:47;5.60;;;4.20;;
57315;SDS011;43156;50.942;18.144;2023-05-18T21:59:35;11.30;;;4.00;;
57315;SDS011;43156;50.942;18.144;2023-05-18T22:09:19;2.80;;;2.60;;
57315;SDS011;43156;50.942;18.144;2023-05-18T22:19:05;6.20;;;4.80;;
57315;SDS011;43156;50.942;18.144;2023-05-18T22:28:55;4.90;;;4.30;;
57315;SDS011;43156;50.942;18.144;2023-05-18T22:38:43;6.50;;;4.20;;
57315;SDS011;43156;50.942;18.144;2023-05-18T22:55:51;22.00;;;11.50;;
57315;SDS011;43156;50.942;18.144;2023-05-18T23:05:35;56.30;;;17.60;;
57315;SDS011;43156;50.942;18.144;2023-05-18T23:22:53;5.00;;;3.80;;
